Seneimaru — JG5357 — position and weather

sailwx.info

Track history (hours):
 
Tides and Currents Weather Stations Pressure Air Temp Water Temp Dewpoint Dewpoint Depression Visibility Wind Speed Wind Dir Waves Ship Positions

Seneimaru

Last reported at 2016-Apr-22 09:09 UTC. Time now 2016-May-01 15:25 UTC.
Position N 34°56' E 139°45'.
Warning: this ship's position is 9 days out of date.

Length 72 m; draft 5.9 m.

Type: Cargo ship. MMSI: 431100477.

Date/timePositionNaut miles runAvg speedWind from/ knotsBaromVisibWave heightAir tempDewpointWater temp
2016-Apr-22 09:09N 34°56' E 139°45'610.3
2016-Apr-22 08:33N 35°02' E 139°43'1111.3
2016-Apr-22 07:33N 35°13' E 139°46'1010.4
2016-Apr-22 06:33N 35°23' E 139°42'8 7.6
2016-Apr-22 05:33N 35°30' E 139°45'2 1.6
2016-Apr-22 04:33N 35°30' E 139°43'0 0.0
2016-Apr-22 03:33N 35°30' E 139°43'0 0.0
2016-Apr-22 02:33N 35°30' E 139°43'0 0.0
2016-Apr-22 01:33N 35°30' E 139°43'0 0.0
2016-Apr-22 00:33N 35°30' E 139°43'0 0.0
2016-Apr-21 23:33N 35°30' E 139°43'0 0.0
2016-Apr-21 22:33N 35°30' E 139°43'0 0.0
2016-Apr-21 21:33N 35°30' E 139°43'0 0.0
2016-Apr-21 20:33N 35°30' E 139°43'0 0.0
2016-Apr-21 19:33N 35°30' E 139°43'0 0.0
2016-Apr-21 18:33N 35°30' E 139°43'0 0.0
2016-Apr-21 17:33N 35°30' E 139°43'0 0.0
2016-Apr-21 16:33N 35°30' E 139°43'0 0.0
2016-Apr-21 15:33N 35°30' E 139°43'0 0.0
2016-Apr-21 14:33N 35°30' E 139°43'0 0.0
2016-Apr-21 13:33N 35°30' E 139°43'0 0.0
2016-Apr-21 12:33N 35°30' E 139°43'0 0.0
2016-Apr-21 11:33N 35°30' E 139°43'0 0.0
2016-Apr-21 10:33N 35°30' E 139°43'0 0.0
2016-Apr-21 09:33N 35°30' E 139°43'0 0.0
2016-Apr-21 08:33N 35°30' E 139°43'0 0.0
2016-Apr-21 07:33N 35°30' E 139°43'0 0.0
2016-Apr-21 06:33N 35°30' E 139°43'0 0.0
2016-Apr-21 05:33N 35°30' E 139°43'0 0.0
2016-Apr-21 04:33N 35°30' E 139°43'0 0.0
2016-Apr-21 03:33N 35°30' E 139°43'0 0.0
2016-Apr-21 02:33N 35°30' E 139°43'0 0.0
2016-Apr-21 01:33N 35°30' E 139°43'0 0.0
2016-Apr-21 00:33N 35°30' E 139°43'0 0.0
2016-Apr-20 23:33N 35°30' E 139°43'0 0.0
2016-Apr-20 22:33N 35°30' E 139°43'0 0.0
2016-Apr-20 21:33N 35°30' E 139°43'0 0.0
2016-Apr-20 20:33N 35°30' E 139°43'1 1.3
2016-Apr-20 19:34N 35°29' E 139°42'6 5.6
2016-Apr-20 18:34N 35°24' E 139°45'0 0.0
2016-Apr-20 17:33N 35°24' E 139°45'0 0.0
2016-Apr-20 16:30N 35°24' E 139°45'5 5.1
2016-Apr-20 15:33N 35°19' E 139°44'1211.7
2016-Apr-20 14:33N 35°07' E 139°46'10 0.3
2016-Apr-19 04:30N 34°58' E 139°43'1111.3
2016-Apr-19 03:33N 35°08' E 139°45'1110.8
2016-Apr-19 02:33N 35°19' E 139°43'1111.0
2016-Apr-19 01:34N 35°29' E 139°48'4 3.9
2016-Apr-19 00:34N 35°30' E 139°43'0 0.0
2016-Apr-18 23:34N 35°30' E 139°43'0 0.0
2016-Apr-18 22:33N 35°30' E 139°43'0 0.0
2016-Apr-18 21:33N 35°30' E 139°43'0 0.0
2016-Apr-18 20:34N 35°30' E 139°43'0 0.0
2016-Apr-18 19:34N 35°30' E 139°43'0 0.0
2016-Apr-18 18:34N 35°30' E 139°43'0 0.0
2016-Apr-18 17:34N 35°30' E 139°43'0 0.0
2016-Apr-18 16:34N 35°30' E 139°43'0 0.0
2016-Apr-18 15:33N 35°30' E 139°43'0 0.0
2016-Apr-18 14:34N 35°30' E 139°43'0 0.0
2016-Apr-18 13:34N 35°30' E 139°43'0 0.0
2016-Apr-18 12:34N 35°30' E 139°43'0 0.0
2016-Apr-18 11:34N 35°30' E 139°43'0 0.0
2016-Apr-18 10:34N 35°30' E 139°43'0 0.0
2016-Apr-18 09:34N 35°30' E 139°43'0 0.0
2016-Apr-18 08:34N 35°30' E 139°43'0 0.0
2016-Apr-18 07:33N 35°30' E 139°43'0 0.0
2016-Apr-18 06:34N 35°30' E 139°43'0 0.0
2016-Apr-18 05:33N 35°30' E 139°43'0 0.0
2016-Apr-18 04:34N 35°30' E 139°43'0 0.0
2016-Apr-18 03:34N 35°30' E 139°43'1 0.8
2016-Apr-18 02:33N 35°29' E 139°43'6 5.7
2016-Apr-18 01:34N 35°24' E 139°44'0 0.0
2016-Apr-18 00:30N 35°24' E 139°44'0 0.0
2016-Apr-17 23:33N 35°24' E 139°44'0 0.0
2016-Apr-17 22:24N 35°24' E 139°44'0 0.1
2016-Apr-17 21:33N 35°24' E 139°44'0 0.0
2016-Apr-17 20:31N 35°24' E 139°44'0 0.0
2016-Apr-17 19:33N 35°24' E 139°44'0 0.0
2016-Apr-17 18:33N 35°24' E 139°44'0 0.0
2016-Apr-17 17:31N 35°24' E 139°44'0 0.0
2016-Apr-17 16:33N 35°24' E 139°44'0 0.0
2016-Apr-17 15:33N 35°24' E 139°44'0 0.0
2016-Apr-17 14:23N 35°24' E 139°44'0 0.1
2016-Apr-17 13:32N 35°24' E 139°44'0 0.0
2016-Apr-17 12:31N 35°24' E 139°44'0 0.0
2016-Apr-17 11:29N 35°24' E 139°44'0 0.0
2016-Apr-17 10:33N 35°24' E 139°44'0 0.0
2016-Apr-17 09:33N 35°24' E 139°44'0 0.1
2016-Apr-17 08:32N 35°24' E 139°44'0 0.0
2016-Apr-17 07:32N 35°24' E 139°44'0 0.3
2016-Apr-17 06:32N 35°24' E 139°44'0 0.0
2016-Apr-17 05:32N 35°24' E 139°44'0 0.1
2016-Apr-17 04:33N 35°24' E 139°44'0 0.1
2016-Apr-17 03:26N 35°24' E 139°44'0 0.3
2016-Apr-17 02:34N 35°24' E 139°44'0 0.0
2016-Apr-17 01:28N 35°24' E 139°44'0 0.2
2016-Apr-17 00:33N 35°24' E 139°44'0 0.0
2016-Apr-16 23:33N 35°24' E 139°44'0 0.0
2016-Apr-16 22:33N 35°24' E 139°44'0 0.0
2016-Apr-16 21:33N 35°24' E 139°44'0 0.0
2016-Apr-16 20:33N 35°24' E 139°44'0 0.1
2016-Apr-16 19:33N 35°24' E 139°44'0 0.0
2016-Apr-16 18:33N 35°24' E 139°44'0 0.1
2016-Apr-16 17:33N 35°24' E 139°44'0 0.0
2016-Apr-16 16:33N 35°24' E 139°44'0 0.0
2016-Apr-16 15:33N 35°24' E 139°44'0 0.1
2016-Apr-16 14:34N 35°24' E 139°44'1010.4
2016-Apr-16 13:33N 35°13' E 139°47'1212.3
2016-Apr-16 12:33N 35°01' E 139°44'1 0.0
2016-Apr-15 04:32N 35°01' E 139°43'1212.5
2016-Apr-15 03:33N 35°13' E 139°46'1211.5
2016-Apr-15 02:33N 35°24' E 139°43'6 5.9
2016-Apr-15 01:33N 35°30' E 139°43'1 0.6
2016-Apr-15 00:33N 35°30' E 139°43'0 0.0
2016-Apr-14 23:33N 35°30' E 139°43'0 0.0
2016-Apr-14 22:33N 35°30' E 139°43'0 0.0
2016-Apr-14 21:33N 35°30' E 139°43'0 0.0
2016-Apr-14 20:33N 35°30' E 139°43'0 0.0
2016-Apr-14 19:33N 35°30' E 139°43'0 0.0
2016-Apr-14 18:33N 35°30' E 139°43'0 0.0
2016-Apr-14 17:33N 35°30' E 139°43'0 0.0
2016-Apr-14 16:33N 35°30' E 139°43'0 0.0
2016-Apr-14 15:33N 35°30' E 139°43'0 0.0
2016-Apr-14 14:33N 35°30' E 139°43'0 0.0
2016-Apr-14 13:33N 35°30' E 139°43'0 0.0
2016-Apr-14 12:33N 35°30' E 139°43'0 0.0
2016-Apr-14 11:33N 35°30' E 139°43'0 0.0
2016-Apr-14 10:33N 35°30' E 139°43'0 0.0
2016-Apr-14 09:33N 35°30' E 139°43'0 0.0
2016-Apr-14 08:33N 35°30' E 139°43'0 0.0
2016-Apr-14 07:33N 35°30' E 139°43'0 0.0
2016-Apr-14 06:33N 35°30' E 139°43'0 0.0
2016-Apr-14 05:33N 35°30' E 139°43'0 0.0
2016-Apr-14 04:33N 35°30' E 139°43'1 1.2
2016-Apr-14 03:33N 35°29' E 139°42'6 5.8
2016-Apr-14 02:33N 35°23' E 139°44'0 0.0
2016-Apr-14 01:31N 35°23' E 139°44'0 0.0
2016-Apr-14 00:31N 35°23' E 139°44'0 0.0
2016-Apr-13 23:31N 35°23' E 139°44'0 0.0
2016-Apr-13 22:31N 35°23' E 139°44'0 0.0
2016-Apr-13 21:31N 35°23' E 139°44'0 0.0
2016-Apr-13 20:31N 35°23' E 139°44'0 0.0
2016-Apr-13 19:31N 35°23' E 139°44'0 0.0
2016-Apr-13 18:31N 35°23' E 139°44'4 3.7
2016-Apr-13 17:33N 35°20' E 139°43'1211.6
2016-Apr-13 16:33N 35°09' E 139°46'1212.3
2016-Apr-13 15:33N 34°56' E 139°44'  
Track history (hours):
 
Tides and Currents Weather Stations Pressure Air Temp Water Temp Dewpoint Dewpoint Depression Visibility Wind Speed Wind Dir Waves Ship Positions

Seneimaru

Last reported at 2016-Apr-22 09:09 UTC. Time now 2016-May-01 15:25 UTC.
Position N 34°56' E 139°45'.
Warning: this ship's position is 9 days out of date.

Length 72 m; draft 5.9 m.

Type: Cargo ship. MMSI: 431100477.

Date/timePositionNaut miles runAvg speedWind from/ knotsBaromVisibWave heightAir tempDewpointWater temp
2016-Apr-22 09:09N 34°56' E 139°45'610.3
2016-Apr-22 08:33N 35°02' E 139°43'1111.3
2016-Apr-22 07:33N 35°13' E 139°46'1010.4
2016-Apr-22 06:33N 35°23' E 139°42'8 7.6
2016-Apr-22 05:33N 35°30' E 139°45'2 1.6
2016-Apr-22 04:33N 35°30' E 139°43'0 0.0
2016-Apr-22 03:33N 35°30' E 139°43'0 0.0
2016-Apr-22 02:33N 35°30' E 139°43'0 0.0
2016-Apr-22 01:33N 35°30' E 139°43'0 0.0
2016-Apr-22 00:33N 35°30' E 139°43'0 0.0
2016-Apr-21 23:33N 35°30' E 139°43'0 0.0
2016-Apr-21 22:33N 35°30' E 139°43'0 0.0
2016-Apr-21 21:33N 35°30' E 139°43'0 0.0
2016-Apr-21 20:33N 35°30' E 139°43'0 0.0
2016-Apr-21 19:33N 35°30' E 139°43'0 0.0
2016-Apr-21 18:33N 35°30' E 139°43'0 0.0
2016-Apr-21 17:33N 35°30' E 139°43'0 0.0
2016-Apr-21 16:33N 35°30' E 139°43'0 0.0
2016-Apr-21 15:33N 35°30' E 139°43'0 0.0
2016-Apr-21 14:33N 35°30' E 139°43'0 0.0
2016-Apr-21 13:33N 35°30' E 139°43'0 0.0
2016-Apr-21 12:33N 35°30' E 139°43'0 0.0
2016-Apr-21 11:33N 35°30' E 139°43'0 0.0
2016-Apr-21 10:33N 35°30' E 139°43'0 0.0
2016-Apr-21 09:33N 35°30' E 139°43'0 0.0
2016-Apr-21 08:33N 35°30' E 139°43'0 0.0
2016-Apr-21 07:33N 35°30' E 139°43'0 0.0
2016-Apr-21 06:33N 35°30' E 139°43'0 0.0
2016-Apr-21 05:33N 35°30' E 139°43'0 0.0
2016-Apr-21 04:33N 35°30' E 139°43'0 0.0
2016-Apr-21 03:33N 35°30' E 139°43'0 0.0
2016-Apr-21 02:33N 35°30' E 139°43'0 0.0
2016-Apr-21 01:33N 35°30' E 139°43'0 0.0
2016-Apr-21 00:33N 35°30' E 139°43'0 0.0
2016-Apr-20 23:33N 35°30' E 139°43'0 0.0
2016-Apr-20 22:33N 35°30' E 139°43'0 0.0
2016-Apr-20 21:33N 35°30' E 139°43'0 0.0
2016-Apr-20 20:33N 35°30' E 139°43'1 1.3
2016-Apr-20 19:34N 35°29' E 139°42'6 5.6
2016-Apr-20 18:34N 35°24' E 139°45'0 0.0
2016-Apr-20 17:33N 35°24' E 139°45'0 0.0
2016-Apr-20 16:30N 35°24' E 139°45'5 5.1
2016-Apr-20 15:33N 35°19' E 139°44'1211.7
2016-Apr-20 14:33N 35°07' E 139°46'10 0.3
2016-Apr-19 04:30N 34°58' E 139°43'1111.3
2016-Apr-19 03:33N 35°08' E 139°45'1110.8
2016-Apr-19 02:33N 35°19' E 139°43'1111.0
2016-Apr-19 01:34N 35°29' E 139°48'4 3.9
2016-Apr-19 00:34N 35°30' E 139°43'0 0.0
2016-Apr-18 23:34N 35°30' E 139°43'0 0.0
2016-Apr-18 22:33N 35°30' E 139°43'0 0.0
2016-Apr-18 21:33N 35°30' E 139°43'0 0.0
2016-Apr-18 20:34N 35°30' E 139°43'0 0.0
2016-Apr-18 19:34N 35°30' E 139°43'0 0.0
2016-Apr-18 18:34N 35°30' E 139°43'0 0.0
2016-Apr-18 17:34N 35°30' E 139°43'0 0.0
2016-Apr-18 16:34N 35°30' E 139°43'0 0.0
2016-Apr-18 15:33N 35°30' E 139°43'0 0.0
2016-Apr-18 14:34N 35°30' E 139°43'0 0.0
2016-Apr-18 13:34N 35°30' E 139°43'0 0.0
2016-Apr-18 12:34N 35°30' E 139°43'0 0.0
2016-Apr-18 11:34N 35°30' E 139°43'0 0.0
2016-Apr-18 10:34N 35°30' E 139°43'0 0.0
2016-Apr-18 09:34N 35°30' E 139°43'0 0.0
2016-Apr-18 08:34N 35°30' E 139°43'0 0.0
2016-Apr-18 07:33N 35°30' E 139°43'0 0.0
2016-Apr-18 06:34N 35°30' E 139°43'0 0.0
2016-Apr-18 05:33N 35°30' E 139°43'0 0.0
2016-Apr-18 04:34N 35°30' E 139°43'0 0.0
2016-Apr-18 03:34N 35°30' E 139°43'1 0.8
2016-Apr-18 02:33N 35°29' E 139°43'6 5.7
2016-Apr-18 01:34N 35°24' E 139°44'0 0.0
2016-Apr-18 00:30N 35°24' E 139°44'0 0.0
2016-Apr-17 23:33N 35°24' E 139°44'0 0.0
2016-Apr-17 22:24N 35°24' E 139°44'0 0.1
2016-Apr-17 21:33N 35°24' E 139°44'0 0.0
2016-Apr-17 20:31N 35°24' E 139°44'0 0.0
2016-Apr-17 19:33N 35°24' E 139°44'0 0.0
2016-Apr-17 18:33N 35°24' E 139°44'0 0.0
2016-Apr-17 17:31N 35°24' E 139°44'0 0.0
2016-Apr-17 16:33N 35°24' E 139°44'0 0.0
2016-Apr-17 15:33N 35°24' E 139°44'0 0.0
2016-Apr-17 14:23N 35°24' E 139°44'0 0.1
2016-Apr-17 13:32N 35°24' E 139°44'0 0.0
2016-Apr-17 12:31N 35°24' E 139°44'0 0.0
2016-Apr-17 11:29N 35°24' E 139°44'0 0.0
2016-Apr-17 10:33N 35°24' E 139°44'0 0.0
2016-Apr-17 09:33N 35°24' E 139°44'0 0.1
2016-Apr-17 08:32N 35°24' E 139°44'0 0.0
2016-Apr-17 07:32N 35°24' E 139°44'0 0.3
2016-Apr-17 06:32N 35°24' E 139°44'0 0.0
2016-Apr-17 05:32N 35°24' E 139°44'0 0.1
2016-Apr-17 04:33N 35°24' E 139°44'0 0.1
2016-Apr-17 03:26N 35°24' E 139°44'0 0.3
2016-Apr-17 02:34N 35°24' E 139°44'0 0.0
2016-Apr-17 01:28N 35°24' E 139°44'0 0.2
2016-Apr-17 00:33N 35°24' E 139°44'0 0.0
2016-Apr-16 23:33N 35°24' E 139°44'0 0.0
2016-Apr-16 22:33N 35°24' E 139°44'0 0.0
2016-Apr-16 21:33N 35°24' E 139°44'0 0.0
2016-Apr-16 20:33N 35°24' E 139°44'0 0.1
2016-Apr-16 19:33N 35°24' E 139°44'0 0.0
2016-Apr-16 18:33N 35°24' E 139°44'0 0.1
2016-Apr-16 17:33N 35°24' E 139°44'0 0.0
2016-Apr-16 16:33N 35°24' E 139°44'0 0.0
2016-Apr-16 15:33N 35°24' E 139°44'0 0.1
2016-Apr-16 14:34N 35°24' E 139°44'1010.4
2016-Apr-16 13:33N 35°13' E 139°47'1212.3
2016-Apr-16 12:33N 35°01' E 139°44'1 0.0
2016-Apr-15 04:32N 35°01' E 139°43'1212.5
2016-Apr-15 03:33N 35°13' E 139°46'1211.5
2016-Apr-15 02:33N 35°24' E 139°43'6 5.9
2016-Apr-15 01:33N 35°30' E 139°43'1 0.6
2016-Apr-15 00:33N 35°30' E 139°43'0 0.0
2016-Apr-14 23:33N 35°30' E 139°43'0 0.0
2016-Apr-14 22:33N 35°30' E 139°43'0 0.0
2016-Apr-14 21:33N 35°30' E 139°43'0 0.0
2016-Apr-14 20:33N 35°30' E 139°43'0 0.0
2016-Apr-14 19:33N 35°30' E 139°43'0 0.0
2016-Apr-14 18:33N 35°30' E 139°43'0 0.0
2016-Apr-14 17:33N 35°30' E 139°43'0 0.0
2016-Apr-14 16:33N 35°30' E 139°43'0 0.0
2016-Apr-14 15:33N 35°30' E 139°43'0 0.0
2016-Apr-14 14:33N 35°30' E 139°43'0 0.0
2016-Apr-14 13:33N 35°30' E 139°43'0 0.0
2016-Apr-14 12:33N 35°30' E 139°43'0 0.0
2016-Apr-14 11:33N 35°30' E 139°43'0 0.0
2016-Apr-14 10:33N 35°30' E 139°43'0 0.0
2016-Apr-14 09:33N 35°30' E 139°43'0 0.0
2016-Apr-14 08:33N 35°30' E 139°43'0 0.0
2016-Apr-14 07:33N 35°30' E 139°43'0 0.0
2016-Apr-14 06:33N 35°30' E 139°43'0 0.0
2016-Apr-14 05:33N 35°30' E 139°43'0 0.0
2016-Apr-14 04:33N 35°30' E 139°43'1 1.2
2016-Apr-14 03:33N 35°29' E 139°42'6 5.8
2016-Apr-14 02:33N 35°23' E 139°44'0 0.0
2016-Apr-14 01:31N 35°23' E 139°44'0 0.0
2016-Apr-14 00:31N 35°23' E 139°44'0 0.0
2016-Apr-13 23:31N 35°23' E 139°44'0 0.0
2016-Apr-13 22:31N 35°23' E 139°44'0 0.0
2016-Apr-13 21:31N 35°23' E 139°44'0 0.0
2016-Apr-13 20:31N 35°23' E 139°44'0 0.0
2016-Apr-13 19:31N 35°23' E 139°44'0 0.0
2016-Apr-13 18:31N 35°23' E 139°44'4 3.7
2016-Apr-13 17:33N 35°20' E 139°43'1211.6
2016-Apr-13 16:33N 35°09' E 139°46'1212.3
2016-Apr-13 15:33N 34°56' E 139°44'  

Dump ship's entire track history